This is the latest recevied weather packets stored in our database for station/object N5ATR. If no packets are shown the sender has not sent any weather packets the latest 1 day(s).
| Time | Temp. | Humidity | Pressure | Rain* | Wind** | Luminosity | Snow |
|---|---|---|---|---|---|---|---|
| 1778085194 | 10° C | 55% | 1014 hPa | 0 mm | - | 637 W/m² | - |
| 1778084890 | 9.44° C | 56% | 1013.8 hPa | 0 mm | - | 626 W/m² | - |
| 1778084285 | 10° C | 55% | 1013.9 hPa | 0 mm | - | 601 W/m² | - |
| 1778083680 | 9.44° C | 56% | 1013.8 hPa | 0 mm | - | 579 W/m² | - |
| 1778080125 | 7.22° C | 66% | 1013.9 hPa | 0 mm | - | 393 W/m² | - |
| 1778079518 | 7.22° C | 65% | 1013.7 hPa | 0 mm | - | 360 W/m² | - |
| 1778077702 | 6.11° C | 71% | 1013.9 hPa | 0 mm | - | 261 W/m² | - |
| 1778075280 | 5° C | 75% | 1013.8 hPa | 0 mm | - | 35 W/m² | - |
| 1778073764 | 4.44° C | 77% | 1013.4 hPa | 0 mm | - | 33 W/m² | - |
| 1778072250 | 3.89° C | 77% | 1013.3 hPa | 0 mm | - | 24 W/m² | - |
| 1778071343 | 2.78° C | 83% | 1013.5 hPa | 0 mm | - | 17 W/m² | - |
| 1778071040 | 2.78° C | 84% | 1013.2 hPa | 0 mm | - | 14 W/m² | - |
| 1778070739 | 2.78° C | 83% | 1013.2 hPa | 0 mm | - | 12 W/m² | - |
| 1778068620 | 2.78° C | 83% | 1012.3 hPa | 0 mm | - | 0 W/m² | - |
| 1778068318 | 2.78° C | 84% | 1012.3 hPa | 0 mm | - | 0 W/m² | - |
| 1778067411 | 2.78° C | 84% | 1012.3 hPa | 0 mm | - | 0 W/m² | - |
| 1778067108 | 2.78° C | 84% | 1012.4 hPa | 0 mm | - | 0 W/m² | - |
| 1778066502 | 2.78° C | 83% | 1012.5 hPa | 0 mm | - | 0 W/m² | - |
| 1778065897 | 2.78° C | 82% | 1012.7 hPa | 0 mm | - | 0 W/m² | - |
| 1778064383 | 2.78° C | 83% | 1012.5 hPa | 0 mm | - | 0 W/m² | - |
| 1778063474 | 3.33° C | 83% | 1012.2 hPa | 0 mm | - | 0 W/m² | - |
| 1778062263 | 3.89° C | 82% | 1012.2 hPa | 0 mm | - | 0 W/m² | - |
| 1778061659 | 3.89° C | 82% | 1012.3 hPa | 0 mm | - | 0 W/m² | - |
| 1778060449 | 3.89° C | 82% | 1012.3 hPa | 0 mm | - | 0 W/m² | - |
| 1778059844 | 3.89° C | 86% | 1012.3 hPa | 0 mm | - | 0 W/m² | - |
* Rain latest hour (hover to see other rain measurements)
** Current wind speed in m/s (hover to see current wind gust speed)